Latest Weather Observations for Mudgee

IDN60801

Issued at 10:03 pm EST Thursday 2 July 2015 (issued every 30 minutes, with the page automatically refreshed every 10 minutes)

About weather observations | Map of weather stations | Latest weather observations for NSW | Other Formats
Station Details ID: 062101 Name: MUDGEE AIRPORT AWS Lat: -32.56 Lon: 149.61 Height: 471.0 m
Data from the previous 72 hours. | See also: Recent months at Mudgee
Date/Time
EST
Temp
°C
App
Temp
°C
Dew
Point
Rel
Hum
%
Delta-T
°C
Wind Press
QNH
hPa
Press
MSL
hPa
Rain
since 9 am
mm
Dir
 
Spd
km/h
Gust
km/h
Spd
kts
Gust
kts
02/10:00pm 6.5 3.4 1.2 69 2.2 S 7 9 4 5 1024.8 1025.5 -
02/09:30pm 6.7 2.1 1.4 69 2.2 SW 15 20 8 11 1024.7 1025.4 0.0
02/09:00pm 7.9 2.4 1.7 65 2.6 SW 20 30 11 16 1024.5 1025.2 0.0
02/08:30pm 8.1 2.6 2.1 66 2.6 WSW 20 32 11 17 1024.0 1024.7 0.0
02/08:00pm 8.6 3.3 1.7 62 2.9 SW 19 26 10 14 1023.9 1024.6 0.0
02/07:30pm 9.2 4.5 3.0 65 2.7 SSW 17 22 9 12 1024.0 1024.7 0.0
02/07:00pm 9.8 3.0 2.9 62 3.0 SW 28 46 15 25 1023.2 1023.9 0.0
02/06:58pm 9.9 3.0 2.7 61 3.2 SW 28 46 15 25 1023.3 1024.0 0.0
02/06:54pm 10.0 3.5 2.8 61 3.2 SW 26 46 14 25 1023.3 1024.0 0.0
02/06:30pm 9.9 5.8 4.3 68 2.6 WSW 15 26 8 14 1022.7 1023.4 0.0
02/06:00pm 9.7 5.6 4.5 70 2.4 W 15 22 8 12 1022.2 1022.9 0.0
02/05:30pm 9.7 4.7 4.5 70 2.4 W 20 28 11 15 1021.8 1022.4 0.0
02/05:00pm 9.9 5.7 3.9 66 2.7 W 15 20 8 11 1021.7 1022.3 0.0
02/04:30pm 9.9 4.7 3.6 65 2.8 W 20 32 11 17 1021.5 1022.2 0.0
02/04:00pm 10.6 6.3 3.4 61 3.2 W 15 24 8 13 1021.3 1022.0 0.0
02/03:30pm 10.8 6.2 3.6 61 3.3 WSW 17 32 9 17 1021.4 1022.1 0.0
02/03:00pm 10.6 4.6 3.4 61 3.2 WSW 24 35 13 19 1021.4 1022.1 0.0
02/02:30pm 10.8 4.1 3.6 61 3.3 WSW 28 35 15 19 1021.2 1021.9 0.0
02/02:00pm 10.4 2.3 3.0 60 3.3 WSW 35 50 19 27 1021.0 1021.7 0.0
02/01:30pm 10.8 3.7 3.4 60 3.3 WSW 30 41 16 22 1021.4 1022.1 0.0
02/01:00pm 10.9 4.3 4.1 63 3.1 WSW 28 39 15 21 1022.0 1022.7 0.0
02/12:30pm 9.8 3.4 3.1 63 3.0 WSW 26 35 14 19 1022.2 1022.9 0.0
02/12:00pm 9.5 4.0 3.9 68 2.5 W 22 30 12 16 1022.6 1023.3 0.0
02/11:30am 8.8 3.8 3.6 70 2.3 W 19 28 10 15 1023.1 1023.8 0.0
02/11:00am 7.9 3.3 3.6 74 1.9 W 17 22 9 12 1023.6 1024.3 0.0
02/10:30am 6.5 1.7 2.4 75 1.7 W 17 22 9 12 1024.1 1024.8 0.0
02/10:00am 6.0 1.6 2.6 79 1.4 WNW 15 19 8 10 1024.0 1024.7 0.0
02/09:30am 5.3 1.4 3.2 86 0.9 WNW 13 17 7 9 1023.9 1024.6 0.0
02/09:00am 5.1 0.4 3.1 87 0.8 W 17 20 9 11 1023.6 1024.3 0.2
02/08:30am 4.3 0.0 3.4 94 0.4 WNW 15 20 8 11 1023.5 1024.2 0.2
02/08:00am 2.0 -0.9 1.7 98 0.1 NNE 6 9 3 5 1023.1 1023.8 0.0
02/07:30am 1.1 -2.5 0.8 98 0.1 NNW 9 11 5 6 1023.0 1023.7 0.0
02/07:00am 1.9 -1.2 1.6 98 0.1 ENE 7 9 4 5 1022.9 1023.6 0.0
02/06:30am 0.3 -3.0 0.0 98 0.1 NNW 7 11 4 6 1023.0 1023.7 0.0
02/06:00am -0.3 -4.1 -0.6 98 0.1 NNE 9 11 5 6 1022.8 1023.5 0.0
02/05:30am -0.6 -4.0 -0.9 98 0.1 NNE 7 9 4 5 1022.5 1023.2 0.0
02/05:00am -0.5 -3.7 -0.8 98 0.1 N 6 7 3 4 1022.8 1023.5 0.0
02/04:30am -0.5 -3.9 -0.8 98 0.1 NE 7 9 4 5 1022.8 1023.5 0.0
02/04:00am -1.1 -5.0 -1.4 98 0.1 NNE 9 11 5 6 1023.0 1023.7 0.0
02/03:30am -0.9 -4.4 -1.2 98 0.1 NNE 7 9 4 5 1023.1 1023.8 0.0
02/03:00am -0.1 -3.5 -0.4 98 0.1 NE 7 9 4 5 1023.2 1023.9 0.0
02/02:30am -1.5 -4.9 -1.8 98 0.0 NNE 6 6 3 3 1023.4 1024.1 0.0
02/02:00am -1.5 -4.9 -1.8 98 0.0 NNE 6 9 3 5 1023.3 1024.0 0.0
02/01:30am -1.1 -5.4 -1.4 98 0.1 NNE 11 11 6 6 1023.3 1024.0 0.0
02/01:00am -0.8 -4.3 -1.1 98 0.1 NE 7 11 4 6 1023.4 1024.1 0.0
02/12:30am 0.3 -1.7 0.0 98 0.1 CALM 0 0 0 0 1023.9 1024.6 0.0
02/12:00am 0.0 -2.0 -0.3 98 0.1 CALM 0 0 0 0 1024.2 1024.9 0.0
 
Date/Time
EST
Temp
°C
App
Temp
°C
Dew
Point
Rel
Hum
%
Delta-T
°C
Wind Press
QNH
hPa
Press
MSL
hPa
Rain
since 9 am
mm
Dir
 
Spd
km/h
Gust
km/h
Spd
kts
Gust
kts
01/11:30pm 0.4 -2.7 0.1 98 0.1 NE 6 9 3 5 1024.3 1025.0 0.0
01/11:00pm 0.6 -3.4 0.3 98 0.1 NNE 11 13 6 7 1024.4 1025.1 0.0
01/10:30pm 1.6 -2.3 1.2 97 0.2 NNE 11 13 6 7 1024.4 1025.1 0.0
01/10:00pm 2.2 -1.6 1.8 97 0.2 N 11 13 6 7 1024.4 1025.1 0.0
01/09:30pm 3.1 0.0 1.3 88 0.7 NNE 7 11 4 6 1024.6 1025.3 0.0
01/09:00pm 3.1 -0.8 1.3 88 0.7 N 11 11 6 6 1024.7 1025.4 0.0
01/08:30pm 3.8 0.3 1.4 84 1.0 N 9 13 5 7 1024.7 1025.4 0.0
01/08:00pm 4.3 1.3 1.7 83 1.1 NNW 7 9 4 5 1025.0 1025.7 0.0
01/07:30pm 4.6 1.2 1.8 82 1.1 NW 9 11 5 6 1024.8 1025.5 0.0
01/07:00pm 5.0 1.6 1.7 79 1.3 NNW 9 11 5 6 1024.5 1025.2 0.0
01/06:30pm 6.1 3.0 1.2 71 2.0 NW 7 9 4 5 1024.0 1024.7 0.0
01/06:00pm 7.5 3.8 2.2 69 2.2 WNW 11 19 6 10 1024.2 1024.9 0.0
01/05:30pm 7.6 3.1 1.9 67 2.4 WNW 15 17 8 9 1024.1 1024.8 0.0
01/05:00pm 9.3 5.6 2.4 62 3.0 NW 11 15 6 8 1023.4 1024.1 0.0
01/04:30pm 11.3 7.6 2.3 54 4.0 WNW 11 15 6 8 1023.4 1024.1 0.0
01/04:00pm 11.8 7.2 1.4 49 4.5 WNW 15 17 8 9 1023.5 1024.2 0.0
01/03:30pm 12.2 7.7 2.1 50 4.5 WNW 15 20 8 11 1023.4 1024.1 0.0
01/03:00pm 12.5 8.1 2.7 51 4.4 WNW 15 19 8 10 1023.4 1024.1 0.0
01/02:30pm 12.6 7.8 2.5 50 4.5 W 17 24 9 13 1023.7 1024.4 0.0
01/02:00pm 13.0 8.1 2.0 47 4.9 WNW 17 28 9 15 1024.1 1024.8 0.0
01/01:30pm 12.7 7.7 3.4 53 4.3 W 19 24 10 13 1024.2 1024.9 0.0
01/01:00pm 13.0 8.2 4.4 56 4.0 WNW 19 28 10 15 1024.4 1025.1 0.0
01/12:30pm 13.2 8.4 4.9 57 3.9 WNW 19 26 10 14 1025.0 1025.7 0.0
01/12:00pm 13.4 7.6 4.6 55 4.1 WNW 24 30 13 16 1025.3 1026.0 0.0
01/11:30am 12.9 10.8 8.2 73 2.4 W 9 17 5 9 1025.6 1026.4 0.0
01/11:00am 12.0 9.9 8.3 78 1.9 NW 9 15 5 8 1026.3 1027.0 0.0
01/10:40am 11.3 10.3 11.0 98 0.2 N 7 11 4 6 1026.4 1027.1 0.0
01/10:30am 10.0 8.7 9.9 99 0.1 N 7 9 4 5 1026.5 1027.2 0.0
01/10:00am 8.0 6.8 7.9 99 0.0 N 4 7 2 4 1026.7 1027.4 0.0
01/09:30am 7.2 5.4 7.1 99 0.0 NNW 6 9 3 5 1026.6 1027.1 0.0
01/09:00am 6.7 5.5 6.6 99 0.0 NNE 2 7 1 4 1026.4 1026.9 0.2
01/08:30am 6.3 5.4 6.2 99 0.0 CALM 0 0 0 0 1026.5 1027.0 0.2
01/08:00am 5.8 4.8 5.7 99 0.0 CALM 0 0 0 0 1026.4 1026.9 0.2
01/07:30am 5.5 4.5 5.4 99 0.0 CALM 0 0 0 0 1026.3 1026.8 0.2
01/07:19am 5.4 4.3 5.3 99 0.0 CALM 0 0 0 0 1026.3 1026.8 0.2
01/07:00am 4.8 3.2 4.7 99 0.0 ENE 2 6 1 3 1026.2 1026.7 0.2
01/06:42am 5.4 3.2 5.3 99 0.0 ENE 6 7 3 4 1025.9 1026.5 0.2
01/06:30am 5.1 3.2 5.0 99 0.0 NNE 4 6 2 3 1025.8 1026.4 0.2
01/06:00am 5.7 3.9 5.6 99 0.0 NNE 4 7 2 4 1025.5 1026.1 0.2
01/05:44am 5.8 3.7 5.7 99 0.0 N 6 7 3 4 1025.3 1025.9 0.2
01/05:34am 5.7 3.4 5.6 99 0.0 NNW 7 9 4 5 1025.4 1026.0 0.2
01/05:30am 6.0 3.7 5.9 99 0.0 NW 7 9 4 5 1025.3 1025.9 0.2
01/05:00am 6.8 6.0 6.7 99 0.0 CALM 0 0 0 0 1025.1 1025.6 0.2
01/04:30am 7.3 6.7 7.2 99 0.0 CALM 0 0 0 0 1025.3 1025.9 0.2
01/04:26am 7.2 6.5 7.1 99 0.0 CALM 0 0 0 0 1025.3 1025.9 0.2
01/04:00am 7.3 6.3 7.2 99 0.0 SE 2 7 1 4 1025.1 1025.6 0.2
01/03:30am 6.8 4.3 6.7 99 0.0 SSE 9 13 5 7 1025.3 1025.9 0.0
01/03:00am 6.4 4.8 6.3 99 0.0 S 4 7 2 4 1025.7 1026.3 0.0
01/02:30am 6.8 6.0 6.7 99 0.0 CALM 0 0 0 0 1025.6 1026.2 0.0
01/02:00am 6.6 5.8 6.5 99 0.0 CALM 0 0 0 0 1025.9 1026.5 0.0
01/01:30am 6.7 5.9 6.6 99 0.0 CALM 0 6 0 3 1026.2 1026.7 0.0
01/01:00am 6.3 4.3 6.2 99 0.0 N 6 7 3 4 1026.0 1026.6 0.0
01/12:30am 6.2 4.0 6.1 99 0.0 NNE 7 7 4 4 1026.2 1026.7 0.0
01/12:00am 6.2 5.3 6.1 99 0.0 CALM 0 0 0 0 1026.5 1027.0 0.0
 
Date/Time
EST
Temp
°C
App
Temp
°C
Dew
Point
Rel
Hum
%
Delta-T
°C
Wind Press
QNH
hPa
Press
MSL
hPa
Rain
since 9 am
mm
Dir
 
Spd
km/h
Gust
km/h
Spd
kts
Gust
kts
30/11:30pm 6.5 5.7 6.4 99 0.0 CALM 0 0 0 0 1026.4 1026.9 0.0
30/11:00pm 6.3 5.4 6.2 99 0.0 CALM 0 7 0 4 1026.7 1027.2 0.0
30/10:30pm 6.6 4.7 6.5 99 0.0 SSE 6 7 3 4 1026.8 1027.3 0.0
30/10:00pm 6.4 3.8 6.3 99 0.0 NE 9 13 5 7 1027.0 1027.6 0.0
30/09:30pm 6.2 3.6 5.9 98 0.1 NE 9 11 5 6 1026.9 1027.4 0.0
30/09:00pm 6.8 3.5 6.5 98 0.1 NE 13 15 7 8 1027.1 1027.7 0.0
30/08:30pm 7.0 6.2 6.7 98 0.1 CALM 0 0 0 0 1027.2 1027.8 0.0
30/08:00pm 7.5 6.9 7.2 98 0.1 CALM 0 0 0 0 1027.0 1027.6 0.0
30/07:30pm 7.7 6.0 7.4 98 0.1 NE 6 9 3 5 1027.0 1027.6 0.0
30/07:00pm 9.4 7.1 9.1 98 0.2 NE 11 13 6 7 1026.8 1027.3 0.0
30/06:30pm 9.7 9.5 9.2 97 0.3 CALM 0 0 0 0 1026.8 1027.3 0.0
30/06:00pm 10.4 10.2 9.2 92 0.6 CALM 0 0 0 0 1026.5 1027.0 0.0
30/05:30pm 11.2 10.7 9.3 88 1.0 NW 2 6 1 3 1026.6 1027.1 0.0
30/05:00pm 11.7 10.3 9.4 86 1.2 N 7 7 4 4 1026.4 1026.9 0.0
30/04:30pm 12.2 10.8 9.0 81 1.6 NW 6 7 3 4 1026.4 1026.9 0.0
30/04:00pm 12.7 10.7 8.8 77 2.0 NNW 9 11 5 6 1026.4 1026.9 0.0
30/03:30pm 13.2 11.2 8.7 74 2.3 N 9 11 5 6 1026.4 1026.9 0.0
30/03:00pm 13.4 11.7 9.8 79 1.9 NW 9 11 5 6 1026.5 1027.0 0.0
30/02:30pm 13.4 11.6 9.6 78 2.0 NNW 9 11 5 6 1026.4 1026.9 0.0
30/02:00pm 13.4 11.5 10.4 82 1.6 NW 11 15 6 8 1026.8 1027.3 0.0
30/01:30pm 13.2 11.4 9.6 79 1.9 NW 9 13 5 7 1027.0 1027.6 0.0
30/01:00pm 13.2 11.3 9.1 76 2.1 NW 9 15 5 8 1027.2 1027.8 0.0
30/12:30pm 13.2 12.2 8.7 74 2.3 SSE 4 7 2 4 1027.5 1028.1 0.0
30/12:00pm 12.2 12.0 9.2 82 1.5 CALM 0 0 0 0 1028.0 1028.6 0.0
30/11:30am 11.4 9.7 9.8 90 0.8 SSW 9 13 5 7 1028.5 1029.0 0.0
30/11:00am 10.8 9.4 9.4 91 0.7 SSE 7 11 4 6 1028.9 1029.5 0.0
30/10:30am 9.7 9.6 9.4 98 0.2 CALM 0 0 0 0 1029.5 1030.1 0.0
30/10:00am 8.7 7.6 8.4 98 0.1 W 4 6 2 3 1029.8 1030.4 0.0
30/09:30am 7.8 6.1 7.5 98 0.1 N 6 9 3 5 1029.9 1030.5 0.0
30/09:00am 7.2 5.8 7.1 99 0.0 SE 4 7 2 4 1029.7 1030.3 0.4
30/08:30am 6.7 5.9 6.6 99 0.0 CALM 0 0 0 0 1029.8 1030.4 0.4
30/08:00am 6.4 4.2 6.3 99 0.0 ENE 7 11 4 6 1029.8 1030.4 0.4
30/07:30am 5.9 3.6 5.8 99 0.0 SSW 7 11 4 6 1029.7 1030.3 0.4
30/07:00am 5.4 4.3 5.3 99 0.0 CALM 0 7 0 4 1029.5 1030.1 0.2
30/06:30am 5.2 4.1 5.1 99 0.0 CALM 0 0 0 0 1029.4 1030.0 0.2
30/06:00am 5.2 3.0 5.1 99 0.0 NE 6 7 3 4 1029.0 1029.6 0.0
30/05:30am 5.2 4.1 5.1 99 0.0 CALM 0 0 0 0 1028.7 1029.2 0.0
30/05:00am 5.1 3.6 5.0 99 0.0 SSW 2 9 1 5 1028.5 1029.0 0.0
30/04:30am 4.8 3.6 4.7 99 0.0 CALM 0 0 0 0 1028.4 1028.9 0.0
30/04:00am 4.6 3.4 4.5 99 0.0 CALM 0 6 0 3 1028.6 1029.1 0.0
30/03:30am 4.6 3.0 4.5 99 0.0 SE 2 6 1 3 1028.8 1029.4 0.0
30/03:00am 3.8 1.3 3.5 98 0.1 NE 6 7 3 4 1029.2 1029.8 0.0
30/02:30am 3.5 0.9 3.2 98 0.1 NE 6 13 3 7 1029.0 1029.6 0.0
30/02:00am 3.7 1.1 3.4 98 0.1 SSE 6 9 3 5 1029.4 1030.0 0.0
30/01:30am 2.8 1.2 2.5 98 0.1 CALM 0 0 0 0 1029.6 1030.2 0.0
30/01:00am 2.9 1.3 2.6 98 0.1 CALM 0 0 0 0 1029.6 1030.2 0.0
30/12:30am 2.2 0.5 1.9 98 0.1 CALM 0 0 0 0 1029.9 1030.5 0.0
30/12:00am 3.3 1.4 3.0 98 0.1 SSW 2 6 1 3 1029.9 1030.5 0.0
 
Date/Time
EST
Temp
°C
App
Temp
°C
Dew
Point
Rel
Hum
%
Delta-T
°C
Wind Press
QNH
hPa
Press
MSL
hPa
Rain
since 9 am
mm
Dir
 
Spd
km/h
Gust
km/h
Spd
kts
Gust
kts
29/11:30pm 3.6 2.2 3.3 98 0.1 CALM 0 0 0 0 1030.1 1030.7 0.0
29/11:00pm 3.8 2.0 3.5 98 0.1 ENE 2 7 1 4 1030.2 1030.8 0.0
29/10:30pm 4.5 3.2 4.2 98 0.1 CALM 0 0 0 0 1030.4 1031.0 0.0

Other Formats:

Comma delimited format used in spreadsheet applications
http://www.bom.gov.au/fwo/IDN60801/IDN60801.94727.axf

JavaScript Object Notation format (JSON) in row-major order
http://www.bom.gov.au/fwo/IDN60801/IDN60801.94727.json